ADDS METAR Data INFO
IDs: Format: Raw Decoded Include TAF

Data at: 0627 UTC 15 Dec 2017

KMCB 150553Z AUTO 35005KT 10SM CLR 09/04 A3006 RMK AO2 SLP178 T00890044 10106 20067 401560000 51010
KMCB 150453Z AUTO 36005KT 10SM CLR 09/05 A3005 RMK AO2 SLP174 T00890050
KMCB 150353Z AUTO 36004KT 10SM CLR 07/04 A3005 RMK AO2 SLP173 T00720044
KMCB 150253Z AUTO 34003KT 10SM CLR 08/05 A3003 RMK AO2 SLP168 T00830050 51015
KMCB 150153Z AUTO 01005KT 10SM CLR 09/06 A3003 RMK AO2 SLP167 T00940056
KMCB 150053Z AUTO 00000KT 10SM CLR 09/06 A3000 RMK AO2 SLP160 T00890061
KMCB 142353Z AUTO 00000KT 10SM CLR 10/07 A2999 RMK AO2 SLP155 T01000067 10156 20100 53012
KMCB 142253Z AUTO 00000KT 10SM CLR 13/06 A2998 RMK AO2 SLP151 T01280056
KMCB 142153Z AUTO 00000KT 10SM CLR 14/05 A2996 RMK AO2 SLP144 T01440050
KMCB 142053Z AUTO 21005KT 10SM CLR 15/04 A2995 RMK AO2 SLP142 T01500039 56012
KMCB 141953Z AUTO 22006KT 10SM CLR 16/03 A2996 RMK AO2 SLP144 T01560028
KMCB 141853Z AUTO 24005KT 10SM CLR 15/03 A2997 RMK AO2 SLP146 T01500028
KMCB 141753Z AUTO 28004KT 10SM CLR 15/02 A2999 RMK AO2 SLP154 T01500022 10156 20000 58008
KMCB 141653Z AUTO 31004KT 10SM CLR 16/02 A3001 RMK AO2 SLP161 T01560017
KMCB 141553Z AUTO 28004KT 10SM CLR 12/03 A3002 RMK AO2 SLP165 T01220033
KMCB 141453Z AUTO 00000KT 9SM CLR 08/06 A3001 RMK AO2 SLP162 T00830056 53015
KMCB 141353Z AUTO 00000KT 6SM BR CLR 04/03 A2999 RMK AO2 SLP155 T00440028
KMCB 141253Z AUTO 00000KT 7SM CLR 03/01 A2996 RMK AO2 SLP145 T00280006
KMCB 141153Z AUTO 00000KT 9SM CLR 00/M02 A2997 RMK AO2 SLP149 T00001017 10067 20000 53006
KMCB 141053Z AUTO 00000KT 10SM CLR 02/00 A2995 RMK AO2 SLP143 T00220000
KMCB 140953Z AUTO 00000KT 8SM CLR 02/01 A2996 RMK AO2 SLP144 T00220006
KMCB 140853Z AUTO 00000KT 9SM CLR 03/01 A2995 RMK AO2 SLP141 T00280011 56006
KMCB 140753Z AUTO 00000KT 10SM CLR 04/02 A2996 RMK AO2 SLP143 T00390017
KMCB 140653Z AUTO 00000KT 10SM CLR 06/02 A2996 RMK AO2 SLP143 T00610022
KMCB 140553Z AUTO 00000KT 10SM CLR 07/02 A2997 RMK AO2 SLP147 T00670022 10089 20056 401501022 58003
KMCB 140453Z AUTO 00000KT 10SM CLR 07/02 A2998 RMK AO2 SLP150 T00670017
KMCB 140353Z AUTO 20005KT 10SM CLR 07/02 A2998 RMK AO2 SLP152 T00720017
KMCB 140253Z AUTO 23003KT 10SM CLR 08/01 A2998 RMK AO2 SLP151 T00830011 55005
KMCB 140153Z AUTO 21004KT 10SM CLR 08/01 A2998 RMK AO2 SLP152 T00830006
KMCB 140053Z AUTO 21005KT 10SM CLR 09/01 A2998 RMK AO2 SLP153 T00890006
KMCB 132353Z AUTO 20003KT 10SM CLR 06/02 A2999 RMK AO2 SLP157 T00610017 10150 20061 56009
KMCB 132253Z AUTO 00000KT 10SM CLR 10/02 A3000 RMK AO2 SLP159 T01000017
KMCB 132153Z AUTO 21005KT 10SM CLR 13/M01 A3001 RMK AO2 SLP161 T01281011
KMCB 132053Z AUTO 21007KT 10SM CLR 14/M02 A3002 RMK AO2 SLP165 T01391022 56030
KMCB 131953Z AUTO 19011KT 10SM CLR 15/M02 A3004 RMK AO2 SLP172 T01501022
KMCB 131853Z AUTO 24009KT 10SM CLR 14/M03 A3008 RMK AO2 SLP185 T01391028